Time;durP1;ratioP1;P1;durP2;ratioP2;P2;SDS_P1;SDS_P2;PMS_P1;PMS_P2;Temp;Humidity;BMP_temperature;BMP_pressure;BME280_temperature;BME280_humidity;BME280_pressure;Samples;Min_cycle;Max_cycle;Signal;HPM_P1;HPM_P2
2021/09/02 00:01:36;;;;;;;16.98;8.88;;;;;;;23.36;44.52;102526.47;5052824;28;20088;-61
2021/09/02 00:04:02;;;;;;;17.95;9.38;;;;;;;23.35;45.24;102524.75;5052694;28;20029;-62
2021/09/02 00:06:27;;;;;;;17.35;9.05;;;;;;;23.36;44.31;102521.00;5050928;28;20063;-62
2021/09/02 00:08:53;;;;;;;24.08;10.68;;;;;;;23.32;44.55;102514.13;5050725;28;20036;-61
2021/09/02 00:11:18;;;;;;;23.08;11.40;;;;;;;23.36;44.42;102515.53;5051001;28;20068;-62
2021/09/02 00:13:43;;;;;;;23.25;11.60;;;;;;;23.36;44.57;102510.03;5051881;28;20053;-62
2021/09/02 00:16:09;;;;;;;21.95;11.95;;;;;;;23.37;44.20;102517.19;5051864;28;20032;-62
2021/09/02 00:18:34;;;;;;;22.02;11.30;;;;;;;23.35;45.19;102505.59;5053015;28;20108;-62
2021/09/02 00:20:59;;;;;;;29.27;12.18;;;;;;;23.32;44.88;102502.34;5055414;28;20075;-61
2021/09/02 00:23:25;;;;;;;27.13;12.32;;;;;;;23.33;45.34;102513.13;5054057;28;20027;-62
2021/09/02 00:25:50;;;;;;;27.08;11.50;;;;;;;23.32;45.21;102505.06;5055312;28;20075;-62
2021/09/02 00:28:16;;;;;;;21.98;10.75;;;;;;;23.30;44.90;102504.41;5055739;28;20029;-61
2021/09/02 00:30:41;;;;;;;23.73;11.43;;;;;;;23.31;44.43;102497.91;5054727;28;20021;-62
2021/09/02 00:33:07;;;;;;;25.23;12.20;;;;;;;23.31;44.20;102501.47;5056341;28;20029;-62
2021/09/02 00:35:32;;;;;;;21.55;11.73;;;;;;;23.33;45.07;102504.91;5054661;28;20382;-62
2021/09/02 00:37:58;;;;;;;25.25;12.30;;;;;;;23.33;44.74;102499.44;5056330;28;20025;-62
2021/09/02 00:40:24;;;;;;;33.67;14.25;;;;;;;23.33;44.60;102496.72;5055144;28;20052;-62
2021/09/02 00:42:50;;;;;;;31.25;15.45;;;;;;;23.31;44.45;102509.69;5056425;28;20076;-62
2021/09/02 00:45:15;;;;;;;28.83;15.02;;;;;;;23.31;44.78;102501.47;5056390;28;20020;-62
2021/09/02 00:47:40;;;;;;;31.38;14.50;;;;;;;23.34;44.61;102506.59;5054673;28;20025;-62
2021/09/02 00:50:07;;;;;;;30.52;14.32;;;;;;;23.32;44.50;102500.47;5056437;28;20067;-63
2021/09/02 00:52:33;;;;;;;27.75;13.65;;;;;;;23.33;45.19;102502.19;5056153;28;20056;-62
2021/09/02 00:55:04;;;;;;;30.23;14.32;;;;;;;23.31;44.33;102496.00;5054944;28;20052;-62
2021/09/02 00:57:31;;;;;;;31.38;14.73;;;;;;;23.31;44.15;102506.94;5055725;28;20037;-62
2021/09/02 01:00:01;;;;;;;35.40;16.63;;;;;;;23.27;45.25;102493.78;5054901;28;20032;-61
2021/09/02 01:02:28;;;;;;;32.78;14.68;;;;;;;23.31;44.42;102503.38;5056469;28;20021;-62
2021/09/02 01:07:34;;;;;;;24.35;13.10;;;;;;;23.24;44.69;102497.72;5132666;27;20115;-62
2021/09/02 01:10:01;;;;;;;32.22;12.65;;;;;;;23.24;45.58;102492.25;5094062;28;20379;-62
2021/09/02 01:12:27;;;;;;;26.80;12.82;;;;;;;23.23;45.72;102503.38;5093868;28;20024;-62
2021/09/02 01:14:53;;;;;;;32.42;14.60;;;;;;;23.21;44.70;102498.06;5112287;28;20024;-62
2021/09/02 01:17:18;;;;;;;27.88;13.80;;;;;;;23.14;44.91;102497.06;5111899;28;20012;-62
2021/09/02 01:19:44;;;;;;;28.45;14.05;;;;;;;23.13;45.62;102501.66;5112028;28;20099;-62
2021/09/02 01:22:10;;;;;;;26.83;14.00;;;;;;;23.07;44.96;102494.13;5111766;28;20061;-62
2021/09/02 01:24:35;;;;;;;28.77;13.35;;;;;;;23.02;45.72;102502.00;5093668;28;20036;-62
2021/09/02 01:27:01;;;;;;;23.60;12.75;;;;;;;22.96;44.91;102490.88;5093295;28;20024;-63
2021/09/02 01:29:26;;;;;;;25.35;13.75;;;;;;;22.90;45.65;102491.56;5112083;28;20065;-62
2021/09/02 01:31:53;;;;;;;31.25;13.50;;;;;;;22.81;45.05;102492.59;5112097;28;20095;-62
2021/09/02 01:34:18;;;;;;;29.48;13.00;;;;;;;22.73;44.78;102496.13;5093307;28;20024;-62
2021/09/02 01:36:44;;;;;;;24.27;12.18;;;;;;;22.63;45.04;102495.41;5076395;28;20046;-63
2021/09/02 01:39:17;;;;;;;24.20;11.95;;;;;;;22.52;45.35;102493.84;5111885;28;20103;-62
2021/09/02 01:41:42;;;;;;;22.83;11.63;;;;;;;22.42;45.50;102476.72;5093696;28;20028;-63
2021/09/02 01:44:07;;;;;;;23.73;12.98;;;;;;;22.37;44.94;102494.63;5093411;28;20028;-63
2021/09/02 01:46:33;;;;;;;31.60;12.93;;;;;;;22.30;46.17;102493.59;5111439;28;20035;-63
2021/09/02 01:48:58;;;;;;;34.53;13.45;;;;;;;22.18;45.45;102490.31;5111350;28;20032;-63
2021/09/02 01:51:23;;;;;;;29.45;13.90;;;;;;;22.14;45.63;102488.09;5093072;28;20461;-63
2021/09/02 01:53:49;;;;;;;26.17;12.93;;;;;;;22.07;45.15;102496.06;5111542;28;20451;-63
2021/09/02 01:56:14;;;;;;;30.67;13.50;;;;;;;21.98;46.26;102488.84;5093119;28;20036;-62
2021/09/02 01:58:39;;;;;;;26.65;13.20;;;;;;;21.95;46.27;102503.69;5098341;28;20032;-62
2021/09/02 02:01:05;;;;;;;26.15;12.80;;;;;;;21.87;46.12;102500.91;5090959;28;20119;-62
2021/09/02 02:03:30;;;;;;;22.95;11.98;;;;;;;21.80;46.22;102499.78;5090435;28;20028;-62
2021/09/02 02:05:55;;;;;;;32.97;13.35;;;;;;;21.75;45.57;102504.03;5083418;28;20049;-62
2021/09/02 02:08:21;;;;;;;25.65;12.90;;;;;;;21.68;46.05;102501.09;5070311;28;20424;-62
2021/09/02 02:10:46;;;;;;;26.80;11.70;;;;;;;21.61;46.37;102491.00;5053311;28;20029;-62
2021/09/02 02:13:11;;;;;;;33.15;13.50;;;;;;;21.53;46.56;102497.22;5070180;28;20033;-62
2021/09/02 02:15:37;;;;;;;26.90;12.73;;;;;;;21.46;46.71;102497.03;5070987;28;20060;-62
2021/09/02 02:18:03;;;;;;;29.38;12.32;;;;;;;21.40;45.90;102489.50;5062536;28;20036;-62
2021/09/02 02:20:28;;;;;;;24.65;11.52;;;;;;;21.33;46.60;102482.94;5057697;28;20044;-62
2021/09/02 02:22:54;;;;;;;21.77;10.18;;;;;;;21.26;46.23;102492.78;5057481;28;20107;-62
2021/09/02 02:25:19;;;;;;;18.25;9.27;;;;;;;21.19;46.54;102494.41;5057846;28;20029;-62
2021/09/02 02:27:45;;;;;;;22.30;9.90;;;;;;;21.10;47.01;102498.09;5040036;28;20485;-62
2021/09/02 02:30:14;;;;;;;24.33;9.95;;;;;;;21.06;46.81;102491.22;5057917;28;20079;-62
2021/09/02 02:32:39;;;;;;;22.55;10.63;;;;;;;21.01;46.67;102493.56;5057786;28;20366;-62
2021/09/02 02:35:05;;;;;;;30.27;12.25;;;;;;;20.96;46.61;102487.72;5058361;28;20067;-62
2021/09/02 02:37:31;;;;;;;25.95;11.52;;;;;;;20.88;46.76;102476.75;5039704;28;20043;-62
2021/09/02 02:39:56;;;;;;;30.20;13.45;;;;;;;20.87;47.37;102485.94;5057988;28;20037;-62
2021/09/02 02:42:22;;;;;;;27.60;11.88;;;;;;;20.83;47.36;102487.22;5039829;28;20033;-62
2021/09/02 02:44:47;;;;;;;22.13;11.15;;;;;;;20.79;47.21;102483.13;5057310;28;20021;-63
2021/09/02 02:47:13;;;;;;;27.05;10.40;;;;;;;20.74;47.40;102488.19;5057606;28;20025;-62
2021/09/02 02:49:38;;;;;;;20.98;9.98;;;;;;;20.71;46.59;102485.78;5022929;28;20041;-62
2021/09/02 02:52:04;;;;;;;21.50;9.93;;;;;;;20.67;47.30;102497.97;5038800;28;20033;-62
2021/09/02 02:54:30;;;;;;;15.68;7.50;;;;;;;20.60;47.41;102477.81;5039319;28;20025;-62
2021/09/02 02:56:55;;;;;;;16.40;8.02;;;;;;;20.57;47.08;102483.56;5056989;28;20104;-62
2021/09/02 02:59:20;;;;;;;16.65;8.52;;;;;;;20.50;47.16;102482.47;5056775;28;20049;-62
2021/09/02 03:01:46;;;;;;;19.40;10.30;;;;;;;20.48;46.93;102473.59;5056984;28;20373;-62
2021/09/02 03:04:11;;;;;;;23.15;11.18;;;;;;;20.45;47.38;102473.91;5056863;28;20037;-62
2021/09/02 03:06:37;;;;;;;26.48;13.43;;;;;;;20.42;47.29;102474.22;5056514;28;20045;-62
2021/09/02 03:09:02;;;;;;;22.80;11.60;;;;;;;20.39;46.86;102477.22;5056739;28;20535;-62
2021/09/02 03:11:29;;;;;;;22.30;11.98;;;;;;;20.36;47.24;102481.13;5056777;28;20048;-62
2021/09/02 03:13:54;;;;;;;21.48;11.35;;;;;;;20.33;47.70;102476.84;5038885;28;20029;-62
2021/09/02 03:16:20;;;;;;;27.67;13.38;;;;;;;20.29;46.94;102478.16;5057106;28;20020;-62
2021/09/02 03:18:45;;;;;;;26.83;12.95;;;;;;;20.28;47.56;102475.59;5038758;28;20043;-62
2021/09/02 03:21:10;;;;;;;27.27;13.40;;;;;;;20.26;47.45;102474.88;5038748;28;20515;-62
2021/09/02 03:23:36;;;;;;;24.27;11.18;;;;;;;20.23;47.42;102476.03;5038809;28;20120;-62
2021/09/02 03:26:01;;;;;;;26.65;13.55;;;;;;;20.21;47.00;102474.47;5038589;28;20025;-62
2021/09/02 03:28:26;;;;;;;29.83;12.13;;;;;;;20.19;46.93;102477.31;5038165;28;20029;-62
2021/09/02 03:30:52;;;;;;;24.50;11.05;;;;;;;20.12;46.95;102467.19;5055834;28;20416;-62
2021/09/02 03:33:17;;;;;;;23.13;11.38;;;;;;;20.12;47.68;102478.94;5055755;28;20029;-62
2021/09/02 03:35:43;;;;;;;25.00;12.18;;;;;;;20.08;47.46;102488.41;5038623;28;20021;-62
2021/09/02 03:38:08;;;;;;;31.17;12.75;;;;;;;20.04;47.46;102487.00;5056100;28;20040;-62
2021/09/02 03:40:34;;;;;;;25.13;11.52;;;;;;;19.99;47.34;102478.41;5056215;28;20111;-62
2021/09/02 03:42:59;;;;;;;26.48;12.52;;;;;;;19.98;47.70;102471.28;5056160;28;20032;-62
2021/09/02 03:45:24;;;;;;;25.58;12.38;;;;;;;19.95;47.39;102479.72;5056594;28;20057;-62
2021/09/02 03:47:50;;;;;;;27.40;12.07;;;;;;;19.93;47.37;102468.16;5055937;28;20382;-62
2021/09/02 03:50:17;;;;;;;20.60;9.60;;;;;;;19.91;47.19;102472.88;5038337;28;20040;-62
2021/09/02 03:52:42;;;;;;;23.13;10.57;;;;;;;19.84;47.56;102457.31;5056588;28;20029;-62
2021/09/02 03:55:09;;;;;;;26.15;11.73;;;;;;;19.84;47.34;102458.16;5056192;28;20496;-62
2021/09/02 03:57:34;;;;;;;28.60;12.88;;;;;;;19.84;47.47;102469.03;5055774;28;20028;-62
2021/09/02 03:59:59;;;;;;;30.13;12.77;;;;;;;19.82;47.31;102468.31;5056332;28;20040;-62
2021/09/02 04:02:25;;;;;;;26.55;12.60;;;;;;;19.80;47.46;102456.72;5038005;28;20047;-62
2021/09/02 04:04:50;;;;;;;27.02;11.18;;;;;;;19.78;47.14;102458.75;5055380;28;20036;-62
2021/09/02 04:07:15;;;;;;;27.45;11.23;;;;;;;19.76;47.44;102455.34;5055721;28;20052;-62
2021/09/02 04:09:41;;;;;;;22.70;11.15;;;;;;;19.74;47.65;102463.63;5055614;28;20112;-63
2021/09/02 04:12:06;;;;;;;17.30;9.15;;;;;;;19.70;47.78;102462.22;5056550;28;20492;-62
2021/09/02 04:14:32;;;;;;;19.67;9.00;;;;;;;19.69;47.72;102460.50;5055571;28;20029;-62
2021/09/02 04:16:58;;;;;;;19.25;9.95;;;;;;;19.66;47.58;102457.22;5037607;28;20358;-62
2021/09/02 04:19:24;;;;;;;22.00;9.85;;;;;;;19.61;48.12;102456.81;5056443;28;20108;-62
2021/09/02 04:21:49;;;;;;;22.25;9.90;;;;;;;19.57;47.71;102458.97;5054597;28;20104;-62
2021/09/02 04:24:15;;;;;;;20.83;11.30;;;;;;;19.56;47.63;102472.72;5056047;28;20031;-62
2021/09/02 04:26:40;;;;;;;23.17;11.30;;;;;;;19.51;47.31;102469.59;5055305;28;20029;-62
2021/09/02 04:29:06;;;;;;;24.33;12.73;;;;;;;19.49;47.52;102463.41;5055315;28;20055;-62
2021/09/02 04:31:31;;;;;;;31.33;13.68;;;;;;;19.48;47.66;102462.59;5055320;28;20059;-62
2021/09/02 04:33:56;;;;;;;29.02;13.02;;;;;;;19.47;47.48;102465.44;5037404;28;20025;-62
2021/09/02 04:36:22;;;;;;;30.23;12.77;;;;;;;19.47;47.60;102462.72;5055355;28;20070;-62
2021/09/02 04:38:47;;;;;;;28.67;12.88;;;;;;;19.48;47.82;102459.00;5055164;28;20033;-63
2021/09/02 04:41:12;;;;;;;28.67;13.07;;;;;;;19.49;47.65;102458.84;5037587;28;20029;-62
2021/09/02 04:43:38;;;;;;;26.20;13.02;;;;;;;19.48;47.69;102456.28;5055274;28;20036;-62
2021/09/02 04:46:03;;;;;;;22.08;11.48;;;;;;;19.46;47.93;102453.69;5037068;28;20028;-62
2021/09/02 04:48:28;;;;;;;28.52;12.13;;;;;;;19.44;47.48;102452.13;5055033;28;20486;-62
2021/09/02 04:50:54;;;;;;;29.73;12.32;;;;;;;19.42;48.04;102448.72;5055022;28;20047;-62
2021/09/02 04:53:19;;;;;;;29.98;13.73;;;;;;;19.41;47.48;102457.84;5055578;28;20028;-62
2021/09/02 04:55:45;;;;;;;28.60;12.80;;;;;;;19.39;47.71;102458.03;5054691;28;20033;-62
2021/09/02 04:58:11;;;;;;;28.05;12.35;;;;;;;19.40;47.58;102456.16;5054479;28;20039;-62
2021/09/02 05:00:37;;;;;;;20.15;11.38;;;;;;;19.39;47.95;102457.16;5036978;28;20031;-62
2021/09/02 05:03:04;;;;;;;24.10;11.27;;;;;;;19.37;47.95;102460.00;5054985;28;20033;-62
2021/09/02 05:05:30;;;;;;;29.13;11.73;;;;;;;19.36;47.75;102451.97;5054754;28;20049;-63
2021/09/02 05:07:56;;;;;;;28.50;11.73;;;;;;;19.35;47.31;102455.69;5055025;28;20086;-62
2021/09/02 05:10:21;;;;;;;23.27;12.02;;;;;;;19.35;47.43;102455.69;5054473;28;20564;-62
2021/09/02 05:12:47;;;;;;;20.20;9.85;;;;;;;19.35;47.89;102461.13;5054730;28;20389;-62
2021/09/02 05:15:12;;;;;;;21.15;10.55;;;;;;;19.37;47.54;102456.44;5054545;28;20116;-62
2021/09/02 05:17:38;;;;;;;19.83;9.57;;;;;;;19.38;47.81;102458.13;5055064;28;20029;-62
2021/09/02 05:20:04;;;;;;;18.90;9.75;;;;;;;19.41;47.95;102456.00;5036782;28;20033;-62
2021/09/02 05:22:30;;;;;;;20.75;9.15;;;;;;;19.45;47.81;102454.72;5036752;28;20036;-62
2021/09/02 05:24:55;;;;;;;18.98;9.23;;;;;;;19.50;47.96;102460.56;5055096;28;20029;-62
2021/09/02 05:27:20;;;;;;;28.55;11.18;;;;;;;19.57;47.87;102463.56;5054348;28;20017;-62
2021/09/02 05:29:46;;;;;;;24.67;12.90;;;;;;;19.64;48.01;102464.66;5055354;28;20037;-62
2021/09/02 05:32:11;;;;;;;31.77;13.15;;;;;;;19.73;47.82;102470.09;5054958;28;20389;-62
2021/09/02 05:34:37;;;;;;;27.98;12.23;;;;;;;19.84;47.92;102463.59;5054708;28;20029;-62
2021/09/02 05:37:02;;;;;;;29.30;14.13;;;;;;;19.95;47.99;102460.69;5054142;28;20481;-62
2021/09/02 05:39:28;;;;;;;27.05;14.40;;;;;;;20.10;47.63;102459.16;5054211;28;20040;-62
2021/09/02 05:41:54;;;;;;;27.52;13.57;;;;;;;20.19;47.88;102458.25;5053962;28;20393;-62
2021/09/02 05:44:19;;;;;;;28.95;13.77;;;;;;;20.39;47.66;102456.31;5053868;28;20032;-63
2021/09/02 05:46:45;;;;;;;31.65;13.05;;;;;;;20.52;47.53;102456.78;5036774;28;20029;-62
2021/09/02 05:49:10;;;;;;;30.05;14.57;;;;;;;20.66;48.15;102450.81;5037269;28;20052;-62
2021/09/02 05:51:36;;;;;;;27.17;13.88;;;;;;;20.79;48.04;102450.44;5036870;28;20029;-62
2021/09/02 05:54:01;;;;;;;27.58;13.93;;;;;;;20.93;47.72;102452.63;5057897;28;20029;-62
2021/09/02 05:56:26;;;;;;;35.00;14.65;;;;;;;21.02;47.52;102451.66;5058177;28;20021;-63
2021/09/02 05:58:52;;;;;;;30.27;14.50;;;;;;;21.22;47.27;102450.50;5040103;28;20086;-63
2021/09/02 06:01:17;;;;;;;31.73;14.48;;;;;;;21.39;46.98;102457.78;5040131;28;20068;-63
2021/09/02 06:03:43;;;;;;;28.00;14.45;;;;;;;21.57;46.90;102463.19;5039591;28;20029;-63
2021/09/02 06:06:08;;;;;;;30.25;14.57;;;;;;;21.74;47.18;102469.59;5052711;28;20049;-62
2021/09/02 06:08:34;;;;;;;27.83;14.35;;;;;;;21.88;46.97;102460.84;5076750;28;20491;-62
2021/09/02 06:11:02;;;;;;;30.65;14.30;;;;;;;22.04;46.79;102466.38;5075583;28;20032;-63
2021/09/02 06:13:31;;;;;;;31.35;13.60;;;;;;;22.17;47.18;102468.63;5077099;28;20413;-63
2021/09/02 06:15:57;;;;;;;30.80;15.13;;;;;;;22.28;46.51;102463.72;5076518;28;20480;-63
2021/09/02 06:18:22;;;;;;;30.30;13.27;;;;;;;22.40;47.37;102462.41;5076355;28;20066;-63
2021/09/02 06:20:47;;;;;;;26.50;13.70;;;;;;;22.52;47.15;102450.16;5076805;28;20040;-63
2021/09/02 06:23:13;;;;;;;30.77;14.18;;;;;;;22.66;46.49;102453.28;5076521;28;20020;-63
2021/09/02 06:25:38;;;;;;;33.10;16.33;;;;;;;22.79;46.26;102450.88;5076149;28;20028;-63
2021/09/02 06:28:04;;;;;;;29.40;15.10;;;;;;;22.91;46.91;102453.13;5076466;28;20037;-63
2021/09/02 06:30:30;;;;;;;28.35;14.80;;;;;;;23.03;45.83;102454.47;5075657;28;20036;-63
2021/09/02 06:32:55;;;;;;;30.35;15.43;;;;;;;23.11;46.55;102453.66;5076537;28;20120;-63
2021/09/02 06:35:21;;;;;;;29.02;15.23;;;;;;;23.27;46.51;102458.25;5076539;28;20032;-63
2021/09/02 06:37:46;;;;;;;31.05;14.50;;;;;;;23.39;45.63;102457.75;5076222;28;20102;-62
2021/09/02 06:40:12;;;;;;;28.65;14.80;;;;;;;23.55;45.32;102460.47;5075229;28;20039;-63
2021/09/02 06:42:37;;;;;;;23.20;12.70;;;;;;;23.68;45.67;102459.91;5075790;28;20456;-63
2021/09/02 06:45:03;;;;;;;25.33;13.32;;;;;;;23.82;45.79;102455.59;5076028;28;20480;-63
2021/09/02 06:47:28;;;;;;;27.35;13.77;;;;;;;23.96;44.97;102457.59;5074903;28;20035;-63
2021/09/02 06:49:54;;;;;;;28.58;14.00;;;;;;;24.11;44.77;102466.81;5076252;28;20033;-63
2021/09/02 06:52:19;;;;;;;28.85;14.85;;;;;;;24.23;45.56;102466.22;5076422;28;20052;-63
2021/09/02 06:54:44;;;;;;;26.88;12.88;;;;;;;24.34;45.40;102465.00;5076083;28;20048;-63
2021/09/02 06:57:10;;;;;;;30.38;14.63;;;;;;;24.48;45.20;102469.72;5075101;28;20067;-63
2021/09/02 06:59:35;;;;;;;26.65;14.00;;;;;;;24.60;44.26;102462.78;5075996;28;20103;-63
2021/09/02 07:02:00;;;;;;;26.98;13.60;;;;;;;24.73;44.41;102468.53;5075974;28;20040;-63
2021/09/02 07:04:26;;;;;;;34.05;14.38;;;;;;;24.87;44.45;102458.69;5075922;28;20115;-63
2021/09/02 07:06:51;;;;;;;23.55;12.75;;;;;;;25.00;44.40;102458.06;5063217;28;20053;-63
2021/09/02 07:09:17;;;;;;;31.08;14.85;;;;;;;25.16;43.95;102469.75;5055778;28;20090;-63
2021/09/02 07:11:42;;;;;;;28.17;14.65;;;;;;;25.27;44.11;102465.72;5055764;28;20041;-64
2021/09/02 07:14:07;;;;;;;27.63;14.25;;;;;;;25.42;44.04;102469.34;5038099;28;20021;-63
2021/09/02 07:16:33;;;;;;;27.25;13.57;;;;;;;25.57;43.51;102467.53;5055672;28;20036;-63
2021/09/02 07:18:58;;;;;;;23.05;12.75;;;;;;;25.74;43.38;102466.28;5055419;28;20134;-63
2021/09/02 07:21:24;;;;;;;23.05;13.30;;;;;;;25.93;43.13;102465.75;5038136;28;20104;-63
2021/09/02 07:23:49;;;;;;;21.67;11.25;;;;;;;26.13;43.29;102462.41;5055093;28;20036;-63
2021/09/02 07:26:15;;;;;;;26.70;12.73;;;;;;;26.34;42.52;102471.59;5037283;28;20044;-64
2021/09/02 07:28:40;;;;;;;24.95;12.60;;;;;;;26.49;42.42;102464.13;5055197;28;20116;-63
2021/09/02 07:31:06;;;;;;;23.25;12.80;;;;;;;26.69;42.15;102464.38;5055165;28;20478;-63
2021/09/02 07:33:31;;;;;;;24.73;12.60;;;;;;;26.88;41.56;102463.78;5037567;28;20033;-63
2021/09/02 07:35:57;;;;;;;27.45;12.95;;;;;;;27.02;41.75;102473.88;5055116;28;20448;-63
2021/09/02 07:38:22;;;;;;;22.80;11.90;;;;;;;27.20;41.54;102467.88;5055081;28;20043;-63
2021/09/02 07:40:48;;;;;;;23.33;11.05;;;;;;;27.40;41.63;102473.53;5055054;28;20377;-63
2021/09/02 07:43:13;;;;;;;25.02;12.40;;;;;;;27.58;40.52;102465.66;5055282;28;20397;-63
2021/09/02 07:45:38;;;;;;;23.42;10.93;;;;;;;27.73;40.48;102474.66;5055109;28;20033;-62
2021/09/02 07:48:04;;;;;;;19.50;11.13;;;;;;;27.87;40.44;102476.44;5055431;28;20032;-63
2021/09/02 07:50:29;;;;;;;21.55;9.93;;;;;;;27.98;40.50;102464.84;5055536;28;20036;-63
2021/09/02 07:52:55;;;;;;;20.98;11.02;;;;;;;28.07;41.13;102471.94;5037276;28;20041;-62
2021/09/02 07:55:20;;;;;;;23.02;11.45;;;;;;;28.18;40.10;102474.09;5037946;28;20156;-61
2021/09/02 07:57:48;;;;;;;19.10;10.88;;;;;;;28.27;40.34;102472.88;5038477;28;20037;-61
2021/09/02 08:00:15;;;;;;;22.58;10.32;;;;;;;28.34;40.28;102455.53;5055533;28;20024;-61
2021/09/02 08:02:41;;;;;;;21.77;10.50;;;;;;;28.52;40.05;102459.38;5037719;28;20037;-60
2021/09/02 08:05:07;;;;;;;23.17;11.50;;;;;;;28.65;39.03;102458.59;5037651;28;20393;-61
2021/09/02 08:07:43;;;;;;;22.30;9.63;;;;;;;28.78;38.97;102464.16;5054996;28;20049;-61
2021/09/02 08:10:08;;;;;;;20.55;9.82;;;;;;;28.85;39.33;102459.50;5055204;28;20071;-61
2021/09/02 08:12:34;;;;;;;18.35;10.30;;;;;;;28.97;39.65;102448.69;5055505;28;20458;-61
2021/09/02 08:14:59;;;;;;;19.10;10.68;;;;;;;29.06;39.61;102453.81;5037058;28;20103;-61
2021/09/02 08:17:24;;;;;;;19.90;10.15;;;;;;;29.17;39.36;102455.94;5037125;28;20061;-61
2021/09/02 08:19:50;;;;;;;22.33;11.50;;;;;;;29.26;39.00;102462.94;5055346;28;20033;-61
2021/09/02 08:22:15;;;;;;;23.55;10.32;;;;;;;29.33;38.15;102463.81;5055132;28;20110;-61
2021/09/02 08:24:41;;;;;;;19.17;10.73;;;;;;;29.43;38.80;102458.69;5054789;28;20029;-60
2021/09/02 08:27:06;;;;;;;20.90;10.10;;;;;;;29.54;37.96;102459.13;5036491;28;20427;-61
2021/09/02 08:29:31;;;;;;;17.70;9.45;;;;;;;29.65;38.09;102461.22;5054583;28;20039;-61
2021/09/02 08:31:57;;;;;;;21.77;10.65;;;;;;;29.77;38.25;102474.16;5054755;28;20116;-60
2021/09/02 08:34:22;;;;;;;19.35;9.57;;;;;;;29.91;38.25;102467.56;5054893;28;20029;-61
2021/09/02 08:36:47;;;;;;;23.98;9.90;;;;;;;30.11;37.59;102469.41;5054137;28;20114;-61
2021/09/02 08:39:13;;;;;;;17.00;8.55;;;;;;;30.28;36.94;102471.47;5054451;28;20079;-61
2021/09/02 08:41:38;;;;;;;21.05;10.00;;;;;;;30.44;37.30;102468.25;5054424;28;20061;-61
2021/09/02 08:44:04;;;;;;;19.10;10.40;;;;;;;30.61;37.37;102459.41;5036223;28;20032;-61
2021/09/02 08:46:30;;;;;;;16.75;9.20;;;;;;;30.80;36.89;102466.75;5019764;28;20045;-61
2021/09/02 08:48:56;;;;;;;22.20;9.68;;;;;;;30.97;36.48;102460.47;5036388;28;20028;-62
2021/09/02 08:51:22;;;;;;;17.58;9.23;;;;;;;31.14;36.45;102455.25;5036134;28;20020;-61
2021/09/02 08:53:47;;;;;;;18.63;8.55;;;;;;;31.23;36.10;102447.50;5054045;28;20045;-61
2021/09/02 08:56:12;;;;;;;17.65;8.75;;;;;;;31.37;35.96;102458.25;5053665;28;20096;-61
2021/09/02 08:58:38;;;;;;;19.70;9.45;;;;;;;31.40;36.03;102456.94;5054066;28;20021;-61
2021/09/02 09:01:05;;;;;;;16.67;8.82;;;;;;;31.50;36.25;102463.69;5035956;28;20033;-62
2021/09/02 09:03:31;;;;;;;17.38;9.35;;;;;;;31.64;36.00;102458.84;5053716;28;20033;-61
2021/09/02 09:06:04;;;;;;;16.33;8.35;;;;;;;31.78;35.62;102454.00;5053570;28;20127;-60
2021/09/02 09:08:32;;;;;;;20.00;10.57;;;;;;;31.92;35.34;102447.25;5054032;28;20029;-61
2021/09/02 09:11:14;;;;;;;16.95;9.25;;;;;;;32.01;35.76;102456.97;5036323;28;20025;-61
2021/09/02 09:13:40;;;;;;;14.68;8.00;;;;;;;32.11;35.63;102448.94;5035818;28;20465;-61
2021/09/02 09:16:05;;;;;;;19.67;9.30;;;;;;;32.26;34.84;102454.97;5053518;28;20032;-61
2021/09/02 09:18:30;;;;;;;17.90;8.68;;;;;;;32.38;34.54;102455.88;5053379;28;20029;-61
2021/09/02 09:21:06;;;;;;;19.85;9.13;;;;;;;32.46;34.78;102440.81;5053376;28;20028;-62
2021/09/02 09:23:53;;;;;;;12.85;7.40;;;;;;;32.56;34.52;102441.97;5053342;28;20059;-61
2021/09/02 09:26:19;;;;;;;16.60;7.88;;;;;;;32.69;34.20;102443.72;5053591;28;20040;-60
2021/09/02 09:28:47;;;;;;;21.02;10.25;;;;;;;32.77;33.91;102444.22;5056412;28;20111;-61
2021/09/02 09:31:28;;;;;;;15.13;8.85;;;;;;;32.85;34.84;102445.81;5039759;28;20079;-62
2021/09/02 09:33:54;;;;;;;17.20;8.77;;;;;;;32.92;34.83;102445.69;5057565;28;20384;-61
2021/09/02 09:36:22;;;;;;;14.10;8.15;;;;;;;33.02;34.23;102438.50;5057465;28;20075;-61
2021/09/02 09:39:17;;;;;;;14.25;7.45;;;;;;;33.20;33.67;102437.56;5057135;28;20048;-62
2021/09/02 09:41:47;;;;;;;13.30;6.60;;;;;;;33.30;33.43;102437.81;5048460;28;20071;-61
2021/09/02 09:44:16;;;;;;;16.33;7.43;;;;;;;33.49;33.57;102433.84;5057721;28;20020;-62
2021/09/02 09:46:42;;;;;;;14.95;7.85;;;;;;;33.86;33.37;102442.78;5039495;28;20043;-62
2021/09/02 09:49:07;;;;;;;19.25;8.43;;;;;;;34.41;33.04;102434.78;5056859;28;20415;-61
2021/09/02 09:51:32;;;;;;;14.75;8.10;;;;;;;35.31;32.22;102429.19;5039212;28;20036;-62
2021/09/02 09:53:58;;;;;;;16.75;8.45;;;;;;;37.28;29.35;102426.84;5057850;28;20021;-61
2021/09/02 09:56:24;;;;;;;17.23;8.27;;;;;;;37.75;29.23;102424.06;5039430;28;20119;-62
2021/09/02 09:58:52;;;;;;;11.25;7.32;;;;;;;36.96;30.51;102432.47;5055674;28;20021;-62
2021/09/02 10:01:17;;;;;;;18.83;8.65;;;;;;;36.58;30.66;102430.66;5057022;28;20025;-61
2021/09/02 10:03:43;;;;;;;15.13;8.07;;;;;;;36.36;30.70;102420.63;5039495;28;20461;-61
2021/09/02 10:06:12;;;;;;;13.63;7.22;;;;;;;36.31;31.02;102423.34;5057105;28;20057;-62
2021/09/02 10:08:43;;;;;;;13.23;8.02;;;;;;;36.42;30.90;102419.56;5057005;28;20103;-61
2021/09/02 10:11:11;;;;;;;11.38;7.50;;;;;;;36.04;30.80;102429.72;5022850;28;20060;-62
2021/09/02 10:13:37;;;;;;;11.48;7.43;;;;;;;36.16;30.71;102426.81;5038755;28;20119;-62
2021/09/02 10:16:04;;;;;;;13.00;7.70;;;;;;;36.06;30.48;102416.38;5039242;28;20032;-62
2021/09/02 10:18:31;;;;;;;14.80;7.10;;;;;;;36.24;30.81;102429.13;5056984;28;20029;-61
2021/09/02 10:21:01;;;;;;;15.45;7.30;;;;;;;36.48;30.14;102418.53;5039365;28;20027;-62
2021/09/02 10:23:27;;;;;;;17.45;9.43;;;;;;;36.63;30.08;102416.75;5038891;28;20424;-61
2021/09/02 10:25:52;;;;;;;12.63;7.07;;;;;;;36.85;29.85;102399.06;5055105;28;20080;-62
2021/09/02 10:28:32;;;;;;;14.70;7.70;;;;;;;37.16;29.79;102407.44;5056530;28;20025;-61
2021/09/02 10:31:02;;;;;;;11.45;6.60;;;;;;;37.36;29.45;102403.13;5056625;28;20386;-62
2021/09/02 10:33:43;;;;;;;14.85;7.30;;;;;;;37.51;29.36;102401.28;5056796;28;20032;-62
2021/09/02 10:36:11;;;;;;;12.80;7.03;;;;;;;37.67;29.41;102391.03;5039203;28;20024;-61
2021/09/02 10:38:39;;;;;;;13.93;7.30;;;;;;;37.74;28.56;102388.84;5056262;28;20131;-61
2021/09/02 10:41:05;;;;;;;9.40;6.28;;;;;;;37.79;29.08;102386.03;5057037;28;20040;-62
2021/09/02 10:43:52;;;;;;;15.13;7.20;;;;;;;37.81;28.85;102378.22;5056949;28;20059;-62
2021/09/02 10:46:28;;;;;;;10.52;6.57;;;;;;;37.95;28.59;102376.63;5057121;28;20025;-62
2021/09/02 10:48:54;;;;;;;10.52;5.65;;;;;;;38.08;27.80;102384.50;5056888;28;20358;-62
2021/09/02 10:51:36;;;;;;;11.23;5.72;;;;;;;38.20;27.72;102384.25;5039330;28;20086;-62
2021/09/02 10:54:06;;;;;;;8.50;6.05;;;;;;;38.24;28.25;102377.84;5056814;28;20036;-61
2021/09/02 10:56:56;;;;;;;11.98;6.18;;;;;;;37.79;27.92;102366.47;5056605;28;20017;-62
2021/09/02 10:59:50;;;;;;;11.57;6.10;;;;;;;37.82;27.88;102374.31;5056768;28;20029;-62
2021/09/02 11:02:16;;;;;;;10.20;6.15;;;;;;;37.74;28.28;102366.44;5056896;28;20078;-63
2021/09/02 11:04:42;;;;;;;13.77;6.18;;;;;;;37.85;28.45;102362.56;5056465;28;20432;-62
2021/09/02 11:07:07;;;;;;;12.23;5.55;;;;;;;38.04;27.50;102365.72;5063596;28;20400;-62
2021/09/02 11:09:38;;;;;;;11.52;5.93;;;;;;;37.98;28.21;102364.88;5076971;28;20031;-61
2021/09/02 11:12:11;;;;;;;8.45;5.38;;;;;;;38.13;28.67;102359.34;5075452;28;20028;-62